Time;durP1;ratioP1;P1;durP2;ratioP2;P2;SDS_P1;SDS_P2;PMS_P1;PMS_P2;Temp;Humidity;BMP_temperature;BMP_pressure;BME280_temperature;BME280_humidity;BME280_pressure;Samples;Min_cycle;Max_cycle;Signal;HPM_P1;HPM_P2
2024/01/13 00:02:10;;;;;;;23.13;10.87;;;;;;;-2.66;100.00;99356.91;5052146;28;20582;-79
2024/01/13 00:04:38;;;;;;;25.77;11.33;;;;;;;-2.57;100.00;99360.38;5053923;28;20213;-78
2024/01/13 00:07:05;;;;;;;21.63;10.13;;;;;;;-2.56;100.00;99350.91;5053865;28;20259;-78
2024/01/13 00:09:31;;;;;;;24.60;9.87;;;;;;;-2.59;100.00;99338.81;5055528;28;20211;-77
2024/01/13 00:11:58;;;;;;;26.27;11.27;;;;;;;-2.67;100.00;99350.00;5054754;28;20318;-78
2024/01/13 00:14:24;;;;;;;27.07;11.07;;;;;;;-2.63;100.00;99336.22;5054190;28;20302;-78
2024/01/13 00:16:51;;;;;;;24.67;11.23;;;;;;;-2.64;100.00;99334.50;5054839;28;20574;-78
2024/01/13 00:19:17;;;;;;;22.30;10.93;;;;;;;-2.65;100.00;99332.75;5055938;28;20231;-78
2024/01/13 00:21:45;;;;;;;20.53;8.77;;;;;;;-2.62;100.00;99333.66;5054161;28;20231;-78
2024/01/13 00:24:12;;;;;;;26.97;10.87;;;;;;;-2.67;100.00;99327.59;5052470;28;20653;-77
2024/01/13 00:26:38;;;;;;;23.23;10.77;;;;;;;-2.70;100.00;99334.50;5051512;28;20206;-77
2024/01/13 00:29:05;;;;;;;23.73;10.77;;;;;;;-2.71;100.00;99325.84;5051815;28;20206;-77
2024/01/13 00:31:31;;;;;;;21.30;10.13;;;;;;;-2.73;100.00;99318.94;5051948;28;20308;-77
2024/01/13 00:33:58;;;;;;;24.00;10.53;;;;;;;-2.68;100.00;99327.59;5051545;28;20719;-77
2024/01/13 00:36:25;;;;;;;24.23;10.60;;;;;;;-2.71;100.00;99327.56;5051494;28;20233;-77
2024/01/13 00:38:53;;;;;;;23.77;11.27;;;;;;;-2.74;100.00;99318.09;5051901;28;20237;-79
2024/01/13 00:41:20;;;;;;;31.23;12.03;;;;;;;-2.69;100.00;99310.34;5051803;28;20234;-77
2024/01/13 00:43:47;;;;;;;20.10;9.93;;;;;;;-2.66;100.00;99310.34;5052023;28;20211;-78
2024/01/13 00:46:13;;;;;;;23.63;10.50;;;;;;;-2.76;100.00;99299.09;5051706;28;20221;-77
2024/01/13 00:48:40;;;;;;;25.70;10.13;;;;;;;-2.74;100.00;99293.94;5054731;28;20671;-78
2024/01/13 00:51:07;;;;;;;24.33;11.43;;;;;;;-2.83;100.00;99296.50;5052470;28;20211;-79
2024/01/13 00:53:33;;;;;;;28.20;11.60;;;;;;;-2.89;100.00;99302.53;5051978;28;20271;-77
2024/01/13 00:56:01;;;;;;;27.03;12.87;;;;;;;-2.84;100.00;99295.66;5052281;28;20212;-78
2024/01/13 00:58:28;;;;;;;27.03;11.90;;;;;;;-2.81;100.00;99299.97;5053531;28;20228;-78
2024/01/13 01:00:59;;;;;;;28.67;12.37;;;;;;;-2.65;100.00;99306.88;5052559;28;20206;-76
2024/01/13 01:03:26;;;;;;;29.60;12.80;;;;;;;-2.71;100.00;99306.88;5052133;28;20214;-77
2024/01/13 01:05:53;;;;;;;31.63;12.93;;;;;;;-2.69;100.00;99300.00;5052068;28;20220;-78
2024/01/13 01:08:19;;;;;;;29.47;13.13;;;;;;;-2.72;100.00;99300.84;5053900;28;20280;-77
2024/01/13 01:10:46;;;;;;;32.33;14.27;;;;;;;-2.71;100.00;99296.53;5052564;28;20207;-78
2024/01/13 01:13:14;;;;;;;36.67;13.67;;;;;;;-2.71;100.00;99296.53;5051760;28;20831;-78
2024/01/13 01:15:40;;;;;;;27.77;12.97;;;;;;;-2.68;100.00;99294.81;5051245;28;20233;-77
2024/01/13 01:18:07;;;;;;;33.70;13.83;;;;;;;-2.66;100.00;99292.22;5053577;28;20286;-79
2024/01/13 01:20:33;;;;;;;32.57;14.13;;;;;;;-2.67;100.00;99295.66;5053252;28;20206;-77
2024/01/13 01:23:00;;;;;;;29.50;13.27;;;;;;;-2.66;100.00;99294.81;5051988;28;20243;-78
2024/01/13 01:25:26;;;;;;;31.03;12.93;;;;;;;-2.69;100.00;99290.50;5051986;28;20211;-78
2024/01/13 01:27:53;;;;;;;30.93;12.70;;;;;;;-2.64;100.00;99293.94;5056065;28;20217;-77
2024/01/13 01:30:21;;;;;;;32.80;14.17;;;;;;;-2.65;100.00;99292.22;5056371;28;20211;-78
2024/01/13 01:32:49;;;;;;;35.67;13.17;;;;;;;-2.68;100.00;99286.19;5056166;28;20230;-78
2024/01/13 01:35:15;;;;;;;33.57;12.73;;;;;;;-2.66;100.00;99287.03;5056328;28;20221;-78
2024/01/13 01:37:42;;;;;;;27.10;11.97;;;;;;;-2.74;100.00;99286.19;5057070;28;20299;-78
2024/01/13 01:40:14;;;;;;;31.63;11.73;;;;;;;-2.76;100.00;99274.97;5059826;28;20559;-78
2024/01/13 01:42:40;;;;;;;31.63;11.77;;;;;;;-2.73;100.00;99280.13;5059512;28;20234;-78
2024/01/13 01:45:08;;;;;;;29.43;11.77;;;;;;;-2.70;100.00;99273.25;5056738;28;20210;-78
2024/01/13 01:47:36;;;;;;;23.90;11.30;;;;;;;-2.69;100.00;99263.78;5057901;28;20222;-78
2024/01/13 01:50:04;;;;;;;27.67;11.50;;;;;;;-2.78;100.00;99263.75;5058937;28;20207;-78
2024/01/13 01:52:30;;;;;;;29.90;12.10;;;;;;;-2.77;100.00;99265.47;5059481;28;20235;-78
2024/01/13 01:54:57;;;;;;;30.63;11.90;;;;;;;-2.77;100.00;99258.56;5059554;28;20221;-79
2024/01/13 01:57:24;;;;;;;28.80;11.57;;;;;;;-2.72;100.00;99268.91;5059241;28;20214;-79
2024/01/13 01:59:51;;;;;;;29.80;13.17;;;;;;;-2.82;100.00;99264.63;5057778;28;20549;-78
2024/01/13 02:02:19;;;;;;;25.03;11.73;;;;;;;-2.76;100.00;99262.88;5055641;28;20238;-78
2024/01/13 02:04:48;;;;;;;25.23;11.83;;;;;;;-2.84;100.00;99255.97;5058982;28;20215;-78
2024/01/13 02:07:15;;;;;;;26.23;11.07;;;;;;;-2.83;100.00;99255.09;5059532;28;20210;-78
2024/01/13 02:09:43;;;;;;;29.57;12.30;;;;;;;-2.85;100.00;99247.38;5060035;28;20223;-78
2024/01/13 02:12:09;;;;;;;30.40;11.77;;;;;;;-2.91;100.00;99244.78;5059412;28;20716;-78
2024/01/13 02:14:36;;;;;;;32.20;12.77;;;;;;;-2.89;100.00;99249.97;5058164;28;20298;-78
2024/01/13 02:17:02;;;;;;;28.67;13.00;;;;;;;-2.89;100.00;99242.19;5055625;28;20219;-78
2024/01/13 02:19:32;;;;;;;33.67;12.73;;;;;;;-2.94;100.00;99246.50;5058952;28;20228;-79
2024/01/13 02:22:00;;;;;;;32.07;13.30;;;;;;;-2.95;100.00;99239.59;5059214;28;20244;-78
2024/01/13 02:24:26;;;;;;;31.30;13.13;;;;;;;-2.93;100.00;99243.03;5059992;28;20218;-78
2024/01/13 02:26:53;;;;;;;34.37;13.57;;;;;;;-2.86;100.00;99247.38;5059394;28;20221;-79
2024/01/13 02:29:19;;;;;;;27.97;11.77;;;;;;;-2.92;100.00;99229.25;5059160;28;20214;-79
2024/01/13 02:31:46;;;;;;;34.67;14.17;;;;;;;-2.91;100.00;99242.19;5059048;28;20233;-78
2024/01/13 02:34:12;;;;;;;34.97;13.70;;;;;;;-2.92;100.00;99237.00;5058318;28;20214;-78
2024/01/13 02:36:39;;;;;;;29.43;11.73;;;;;;;-2.88;100.00;99236.16;5057046;28;20590;-78
2024/01/13 02:39:06;;;;;;;32.37;12.53;;;;;;;-2.82;100.00;99231.00;5058963;28;20237;-78
2024/01/13 02:41:33;;;;;;;27.20;12.97;;;;;;;-2.84;100.00;99230.09;5058639;28;20227;-78
2024/01/13 02:43:59;;;;;;;29.90;13.13;;;;;;;-2.83;100.00;99224.94;5058705;28;20221;-79
2024/01/13 02:46:26;;;;;;;28.67;12.73;;;;;;;-2.82;100.00;99221.50;5059127;28;20252;-79
2024/01/13 02:48:54;;;;;;;27.60;12.47;;;;;;;-2.81;100.00;99220.63;5058556;28;20589;-79
2024/01/13 02:51:21;;;;;;;30.53;12.67;;;;;;;-2.78;100.00;99217.19;5058490;28;20601;-79
2024/01/13 02:53:48;;;;;;;30.57;13.47;;;;;;;-2.74;100.00;99213.75;5058796;28;20226;-79
2024/01/13 02:56:16;;;;;;;32.03;12.30;;;;;;;-2.79;100.00;99220.63;5058415;28;20210;-80
2024/01/13 02:58:42;;;;;;;32.33;13.30;;;;;;;-2.77;100.00;99204.25;5055086;28;20233;-78
2024/01/13 03:01:09;;;;;;;24.90;12.00;;;;;;;-2.79;100.00;99200.81;5054641;28;20221;-78
2024/01/13 03:03:35;;;;;;;36.10;13.03;;;;;;;-2.79;100.00;99199.94;5055080;28;20213;-78
2024/01/13 03:06:04;;;;;;;28.73;12.23;;;;;;;-2.87;100.00;99196.50;5054459;28;20218;-78
2024/01/13 03:08:31;;;;;;;23.90;11.33;;;;;;;-2.92;100.00;99190.44;5057904;28;20577;-79
2024/01/13 03:10:57;;;;;;;27.10;11.57;;;;;;;-2.87;100.00;99192.16;5058337;28;20204;-79
2024/01/13 03:13:25;;;;;;;29.33;11.63;;;;;;;-2.81;100.00;99194.75;5058397;28;20637;-79
2024/01/13 03:15:52;;;;;;;27.13;12.20;;;;;;;-2.83;100.00;99196.50;5058073;28;20219;-78
2024/01/13 03:18:18;;;;;;;25.07;11.00;;;;;;;-2.81;100.00;99187.00;5058313;28;20204;-79
2024/01/13 03:20:45;;;;;;;21.10;10.80;;;;;;;-2.78;100.00;99188.72;5058360;28;20207;-79
2024/01/13 03:23:11;;;;;;;21.70;10.30;;;;;;;-2.84;100.00;99184.44;5058018;28;20233;-79
2024/01/13 03:25:38;;;;;;;22.77;10.57;;;;;;;-2.82;100.00;99189.59;5056212;28;20259;-79
2024/01/13 03:28:05;;;;;;;22.37;10.60;;;;;;;-2.83;100.00;99187.84;5056303;28;20219;-78
2024/01/13 03:30:33;;;;;;;25.10;10.90;;;;;;;-2.89;100.00;99177.53;5058765;28;20256;-78
2024/01/13 03:33:00;;;;;;;29.20;11.73;;;;;;;-2.85;100.00;99189.59;5058036;28;20709;-79
2024/01/13 03:35:27;;;;;;;25.77;11.00;;;;;;;-2.82;100.00;99190.44;5054560;28;20216;-78
2024/01/13 03:37:57;;;;;;;21.93;10.10;;;;;;;-2.79;100.00;99190.47;5054881;28;20211;-78
2024/01/13 03:40:23;;;;;;;24.87;11.00;;;;;;;-2.80;100.00;99193.03;5053909;28;20237;-78
2024/01/13 03:42:50;;;;;;;21.17;9.77;;;;;;;-2.84;100.00;99192.19;5056238;28;20230;-78
2024/01/13 03:45:16;;;;;;;22.53;11.10;;;;;;;-2.90;100.00;99186.13;5056671;28;20255;-78
2024/01/13 03:47:44;;;;;;;27.23;10.97;;;;;;;-2.91;100.00;99189.59;5054423;28;20607;-78
2024/01/13 03:50:10;;;;;;;23.10;9.90;;;;;;;-2.93;100.00;99181.81;5053326;28;20207;-78
2024/01/13 03:52:37;;;;;;;22.43;10.67;;;;;;;-2.87;100.00;99180.97;5054142;28;20240;-78
2024/01/13 03:55:04;;;;;;;23.27;9.87;;;;;;;-2.94;100.00;99179.25;5054191;28;20209;-78
2024/01/13 03:57:31;;;;;;;21.50;9.53;;;;;;;-2.94;100.00;99180.09;5054273;28;20222;-77
2024/01/13 03:59:57;;;;;;;25.70;11.27;;;;;;;-2.94;100.00;99174.94;5054989;28;20234;-78
2024/01/13 04:02:25;;;;;;;21.73;10.07;;;;;;;-2.93;100.00;99173.22;5053857;28;20764;-78
2024/01/13 04:04:52;;;;;;;26.07;10.00;;;;;;;-2.89;100.00;99164.59;5054514;28;20305;-78
2024/01/13 04:07:19;;;;;;;22.13;9.83;;;;;;;-2.95;100.00;99152.53;5054574;28;20238;-77
2024/01/13 04:09:45;;;;;;;22.80;10.57;;;;;;;-2.96;100.00;99155.97;5055908;28;20213;-77
2024/01/13 04:12:12;;;;;;;24.17;11.17;;;;;;;-3.06;100.00;99153.41;5054237;28;20258;-78
2024/01/13 04:14:38;;;;;;;22.07;9.93;;;;;;;-3.08;100.00;99147.34;5053188;28;20901;-77
2024/01/13 04:17:05;;;;;;;24.30;10.70;;;;;;;-3.00;100.00;99143.91;5053101;28;20217;-78
2024/01/13 04:19:31;;;;;;;25.93;10.33;;;;;;;-2.96;100.00;99129.25;5053103;28;20237;-78
2024/01/13 04:21:59;;;;;;;24.63;11.00;;;;;;;-3.00;100.00;99133.56;5053385;28;20230;-78
2024/01/13 04:24:26;;;;;;;28.10;12.73;;;;;;;-2.95;100.00;99143.91;5053357;28;20215;-77
2024/01/13 04:26:52;;;;;;;27.40;10.57;;;;;;;-2.91;100.00;99140.44;5053811;28;20215;-77
2024/01/13 04:29:19;;;;;;;26.23;11.47;;;;;;;-2.87;100.00;99134.44;5053816;28;20215;-78
2024/01/13 04:31:45;;;;;;;28.70;12.23;;;;;;;-2.90;100.00;99134.41;5057019;28;20233;-78
2024/01/13 04:34:12;;;;;;;23.27;11.13;;;;;;;-2.91;100.00;99130.97;5056348;28;20587;-78
2024/01/13 04:36:38;;;;;;;29.27;9.77;;;;;;;-2.92;100.00;99126.69;5056036;28;20214;-78
2024/01/13 04:39:06;;;;;;;30.30;11.13;;;;;;;-2.92;100.00;99118.03;5052892;28;20234;-78
2024/01/13 04:41:32;;;;;;;27.07;11.60;;;;;;;-2.94;100.00;99114.59;5052995;28;20234;-78
2024/01/13 04:43:59;;;;;;;21.83;9.93;;;;;;;-2.85;100.00;99117.16;5053124;28;20214;-77
2024/01/13 04:46:25;;;;;;;25.50;11.00;;;;;;;-2.81;100.00;99121.50;5052755;28;20216;-78
2024/01/13 04:48:52;;;;;;;24.77;11.17;;;;;;;-2.83;100.00;99120.59;5053116;28;20223;-78
2024/01/13 04:51:18;;;;;;;25.07;11.80;;;;;;;-2.81;100.00;99113.72;5052852;28;20250;-77
2024/01/13 04:53:45;;;;;;;24.63;11.17;;;;;;;-2.86;100.00;99118.91;5053641;28;20211;-78
2024/01/13 04:56:13;;;;;;;25.63;10.50;;;;;;;-2.80;100.00;99120.63;5055639;28;20211;-78
2024/01/13 04:58:39;;;;;;;26.63;10.87;;;;;;;-2.81;100.00;99124.06;5056047;28;20222;-78
2024/01/13 05:01:06;;;;;;;27.90;11.63;;;;;;;-2.80;100.00;99116.31;5055418;28;20226;-78
2024/01/13 05:03:32;;;;;;;20.70;10.57;;;;;;;-2.74;100.00;99112.84;5056285;28;20206;-78
2024/01/13 05:05:59;;;;;;;23.73;9.90;;;;;;;-2.74;100.00;99107.69;5055071;28;20216;-77
2024/01/13 05:08:25;;;;;;;28.50;11.90;;;;;;;-2.77;100.00;99112.84;5052907;28;20228;-79
2024/01/13 05:10:52;;;;;;;26.70;10.43;;;;;;;-2.80;100.00;99115.44;5056268;28;20207;-78
2024/01/13 05:13:20;;;;;;;26.40;10.80;;;;;;;-2.83;100.00;99105.09;5056093;28;20218;-78
2024/01/13 05:15:46;;;;;;;19.33;9.67;;;;;;;-2.90;100.00;99108.53;5055998;28;20242;-78
2024/01/13 05:18:13;;;;;;;22.17;9.63;;;;;;;-2.91;100.00;99101.66;5055496;28;20546;-78
2024/01/13 05:20:39;;;;;;;22.10;9.70;;;;;;;-2.89;100.00;99105.13;5056366;28;20243;-78
2024/01/13 05:23:07;;;;;;;25.67;11.93;;;;;;;-2.83;100.00;99115.44;5055837;28;20724;-78
2024/01/13 05:25:34;;;;;;;27.23;10.87;;;;;;;-2.83;100.00;99107.66;5053069;28;20210;-77
2024/01/13 05:28:02;;;;;;;22.73;9.47;;;;;;;-2.80;100.00;99110.28;5051879;28;20684;-77
2024/01/13 05:30:32;;;;;;;25.00;9.87;;;;;;;-2.70;100.00;99112.00;5052403;28;20594;-77
2024/01/13 05:32:59;;;;;;;23.63;9.97;;;;;;;-2.72;100.00;99108.53;5052674;28;20263;-77
2024/01/13 05:35:24;;;;;;;23.10;9.70;;;;;;;-2.74;100.00;99113.72;5052533;28;20617;-77
2024/01/13 05:37:51;;;;;;;22.43;9.57;;;;;;;-2.77;100.00;99120.59;5052435;28;20297;-77
2024/01/13 05:40:17;;;;;;;26.17;10.50;;;;;;;-2.77;100.00;99115.44;5052692;28;20230;-78
2024/01/13 05:42:44;;;;;;;28.30;11.17;;;;;;;-2.75;100.00;99109.38;5052133;28;20234;-77
2024/01/13 05:45:10;;;;;;;22.13;9.90;;;;;;;-2.80;100.00;99112.84;5052681;28;20687;-77
2024/01/13 05:47:38;;;;;;;24.43;10.43;;;;;;;-2.83;100.00;99120.59;5052163;28;20215;-77
2024/01/13 05:50:06;;;;;;;29.00;9.97;;;;;;;-2.83;100.00;99108.53;5053714;28;20214;-78
2024/01/13 05:52:33;;;;;;;29.03;11.07;;;;;;;-2.85;100.00;99109.41;5055646;28;20231;-78
2024/01/13 05:54:59;;;;;;;26.80;10.77;;;;;;;-2.85;100.00;99112.00;5055768;28;20236;-78
2024/01/13 05:57:26;;;;;;;24.83;10.17;;;;;;;-2.80;100.00;99112.84;5055981;28;20291;-78
2024/01/13 05:59:52;;;;;;;23.97;10.53;;;;;;;-2.78;100.00;99108.53;5055625;28;20230;-78
2024/01/13 06:02:19;;;;;;;30.93;11.87;;;;;;;-2.74;100.00;99099.91;5055511;28;20239;-78
2024/01/13 06:04:51;;;;;;;23.13;10.63;;;;;;;-2.73;100.00;99106.81;5055143;28;20569;-78
2024/01/13 06:07:19;;;;;;;30.80;11.90;;;;;;;-2.68;100.00;99099.91;5055463;28;20662;-77
2024/01/13 06:09:46;;;;;;;26.73;11.60;;;;;;;-2.65;100.00;99100.75;5054887;28;20235;-78
2024/01/13 06:12:14;;;;;;;22.97;10.57;;;;;;;-2.71;100.00;99092.13;5056371;28;20233;-78
2024/01/13 06:14:41;;;;;;;25.47;10.40;;;;;;;-2.76;100.00;99099.91;5059360;28;20217;-78
2024/01/13 06:17:08;;;;;;;21.50;9.80;;;;;;;-2.77;100.00;99100.78;5058781;28;20211;-78
2024/01/13 06:19:35;;;;;;;23.60;10.63;;;;;;;-2.73;100.00;99086.13;5058755;28;20243;-77
2024/01/13 06:22:03;;;;;;;18.67;8.67;;;;;;;-2.74;100.00;99090.44;5058126;28;20237;-78
2024/01/13 06:24:30;;;;;;;17.07;7.67;;;;;;;-2.75;100.00;99093.03;5058546;28;20651;-78
2024/01/13 06:26:56;;;;;;;22.03;8.27;;;;;;;-2.73;100.00;99080.94;5058249;28;20218;-78
2024/01/13 06:29:23;;;;;;;18.37;8.97;;;;;;;-2.73;100.00;99092.16;5058507;28;20206;-78
2024/01/13 06:31:49;;;;;;;23.90;8.67;;;;;;;-2.73;100.00;99083.53;5060165;28;20233;-78
2024/01/13 06:34:16;;;;;;;19.40;8.83;;;;;;;-2.80;100.00;99084.41;5060443;28;20681;-78
2024/01/13 06:36:42;;;;;;;19.70;9.10;;;;;;;-2.81;100.00;99087.88;5060573;28;20207;-78
2024/01/13 06:39:11;;;;;;;23.00;9.23;;;;;;;-2.83;100.00;99089.56;5059894;28;20207;-78
2024/01/13 06:41:38;;;;;;;24.27;10.40;;;;;;;-2.77;100.00;99094.72;5056795;28;20247;-78
2024/01/13 06:44:04;;;;;;;22.97;10.53;;;;;;;-2.75;100.00;99095.59;5055748;28;20214;-77
2024/01/13 06:46:31;;;;;;;25.53;11.13;;;;;;;-2.67;100.00;99091.28;5054513;28;20210;-78
2024/01/13 06:48:59;;;;;;;20.83;9.37;;;;;;;-2.68;100.00;99089.56;5054705;28;20215;-77
2024/01/13 06:51:26;;;;;;;24.93;10.37;;;;;;;-2.72;100.00;99083.53;5055471;28;20221;-78
2024/01/13 06:53:52;;;;;;;24.60;10.00;;;;;;;-2.71;100.00;99079.19;5055633;28;20207;-79
2024/01/13 06:56:20;;;;;;;19.63;8.87;;;;;;;-2.68;100.00;99069.72;5056630;28;20214;-79
2024/01/13 06:58:50;;;;;;;20.33;8.77;;;;;;;-2.68;100.00;99063.69;5058106;28;20223;-78
2024/01/13 07:01:16;;;;;;;23.50;9.67;;;;;;;-2.67;100.00;99066.28;5058563;28;20249;-78
2024/01/13 07:03:44;;;;;;;25.63;10.73;;;;;;;-2.59;100.00;99063.66;5058173;28;20218;-78
2024/01/13 07:06:10;;;;;;;22.90;10.33;;;;;;;-2.66;100.00;99068.00;5056110;28;20214;-82
2024/01/13 07:08:37;;;;;;;19.40;9.60;;;;;;;-2.63;100.00;99072.31;5058079;28;20225;-78
2024/01/13 07:11:13;;;;;;;21.43;10.20;;;;;;;-2.66;100.00;99072.28;5058808;28;20217;-78
2024/01/13 07:13:43;;;;;;;26.03;11.20;;;;;;;-2.70;100.00;99063.69;5059348;28;20211;-79
2024/01/13 07:16:11;;;;;;;29.10;12.23;;;;;;;-2.74;100.00;99054.22;5059767;28;20210;-79
2024/01/13 07:18:38;;;;;;;30.53;11.37;;;;;;;-2.74;100.00;99058.53;5059632;28;20581;-78
2024/01/13 07:21:05;;;;;;;28.03;11.70;;;;;;;-2.74;100.00;99050.75;5057255;28;20233;-79
2024/01/13 07:23:32;;;;;;;25.53;11.80;;;;;;;-2.74;100.00;99053.34;5058197;28;20245;-79
2024/01/13 07:25:59;;;;;;;29.10;12.20;;;;;;;-2.71;100.00;99048.16;5058714;28;20665;-79
2024/01/13 07:28:29;;;;;;;24.87;10.90;;;;;;;-2.72;100.00;99036.97;5059593;28;20634;-79
2024/01/13 07:30:57;;;;;;;21.03;10.13;;;;;;;-2.69;100.00;99031.75;5059140;28;20208;-79
2024/01/13 07:33:24;;;;;;;22.60;10.13;;;;;;;-2.69;100.00;99025.75;5060019;28;20218;-79
2024/01/13 07:35:50;;;;;;;24.77;10.73;;;;;;;-2.69;100.00;99030.91;5059524;28;20215;-79
2024/01/13 07:38:17;;;;;;;24.40;10.27;;;;;;;-2.66;100.00;99030.91;5059440;28;20214;-79
2024/01/13 07:40:43;;;;;;;26.27;10.77;;;;;;;-2.66;100.00;99028.31;5057799;28;20262;-79
2024/01/13 07:43:10;;;;;;;22.03;10.40;;;;;;;-2.64;100.00;99036.94;5056869;28;20316;-79
2024/01/13 07:45:37;;;;;;;19.03;8.87;;;;;;;-2.60;100.00;99036.06;5057348;28;20218;-79
2024/01/13 07:48:05;;;;;;;17.63;7.90;;;;;;;-2.57;100.00;99041.22;5056642;28;20214;-78
2024/01/13 07:50:35;;;;;;;16.97;8.03;;;;;;;-2.50;100.00;99041.19;5056309;28;20216;-79
2024/01/13 07:53:02;;;;;;;14.30;6.17;;;;;;;-2.49;100.00;99052.41;5058917;28;20286;-79
2024/01/13 07:55:28;;;;;;;13.93;6.63;;;;;;;-2.40;100.00;99042.03;5058779;28;20211;-78
2024/01/13 07:57:55;;;;;;;12.57;6.53;;;;;;;-2.42;100.00;99038.56;5055172;28;20219;-77
2024/01/13 08:00:23;;;;;;;10.10;5.37;;;;;;;-2.42;100.00;99041.16;5054455;28;20229;-78
2024/01/13 08:02:49;;;;;;;14.40;6.37;;;;;;;-2.39;100.00;99036.00;5053294;28;20328;-80
2024/01/13 08:05:17;;;;;;;12.93;6.30;;;;;;;-2.39;100.00;99036.00;5054503;28;20678;-79
2024/01/13 08:07:44;;;;;;;11.80;5.80;;;;;;;-2.41;100.00;99037.72;5054381;28;20210;-78
2024/01/13 08:10:11;;;;;;;13.13;5.83;;;;;;;-2.42;100.00;99046.34;5054477;28;20625;-78
2024/01/13 08:12:37;;;;;;;9.67;5.20;;;;;;;-2.36;100.00;99047.19;5054200;28;20229;-77
2024/01/13 08:15:05;;;;;;;10.03;4.60;;;;;;;-2.39;100.00;99046.34;5052861;28;20669;-77
2024/01/13 08:17:31;;;;;;;8.73;4.93;;;;;;;-2.25;100.00;99049.72;5055052;28;20304;-78
2024/01/13 08:20:02;;;;;;;11.17;5.13;;;;;;;-2.24;100.00;99051.44;5055231;28;20591;-78
2024/01/13 08:22:29;;;;;;;12.43;5.20;;;;;;;-2.29;100.00;99045.41;5055658;28;20318;-79
2024/01/13 08:24:59;;;;;;;9.97;4.63;;;;;;;-2.29;100.00;99043.72;5055386;28;20218;-78
2024/01/13 08:27:26;;;;;;;10.40;5.10;;;;;;;-2.23;100.00;99042.81;5055321;28;20601;-78
2024/01/13 08:29:56;;;;;;;12.40;4.67;;;;;;;-2.20;100.00;99029.88;5054428;28;20226;-77
2024/01/13 08:32:23;;;;;;;10.53;4.90;;;;;;;-2.18;100.00;99030.72;5056754;28;20231;-77
2024/01/13 08:34:51;;;;;;;8.10;4.23;;;;;;;-2.11;100.00;99032.38;5056222;28;20218;-77
2024/01/13 08:37:21;;;;;;;7.33;2.83;;;;;;;-2.19;100.00;99032.44;5055226;28;20738;-77
2024/01/13 08:39:49;;;;;;;6.90;3.17;;;;;;;-2.12;100.00;99034.13;5055366;28;20215;-77
2024/01/13 08:42:15;;;;;;;5.67;3.23;;;;;;;-2.09;100.00;99035.84;5054416;28;20238;-77
2024/01/13 08:44:42;;;;;;;6.43;3.37;;;;;;;-2.10;100.00;99037.56;5055035;28;20213;-77
2024/01/13 08:47:09;;;;;;;6.37;3.57;;;;;;;-2.07;100.00;99047.06;5054686;28;20708;-77
2024/01/13 08:49:36;;;;;;;8.50;4.37;;;;;;;-2.08;100.00;99046.19;5052557;28;20237;-78
2024/01/13 08:52:02;;;;;;;8.83;3.93;;;;;;;-2.03;100.00;99041.84;5056164;28;20227;-77
2024/01/13 08:54:29;;;;;;;7.63;3.90;;;;;;;-2.09;100.00;99046.22;5055429;28;20669;-77
2024/01/13 08:56:57;;;;;;;9.73;4.60;;;;;;;-2.10;100.00;99047.06;5054793;28;20215;-77
2024/01/13 08:59:23;;;;;;;8.90;3.97;;;;;;;-2.15;100.00;99039.31;5055551;28;20210;-78
2024/01/13 09:01:52;;;;;;;7.63;4.27;;;;;;;-2.15;100.00;99046.25;5056632;28;20231;-78
2024/01/13 09:04:19;;;;;;;8.73;4.20;;;;;;;-2.14;100.00;99041.03;5053090;28;20211;-79
2024/01/13 09:06:45;;;;;;;9.00;4.50;;;;;;;-2.03;100.00;99035.81;5053030;28;20215;-77
2024/01/13 09:09:12;;;;;;;10.67;5.17;;;;;;;-2.08;100.00;99035.81;5053484;28;20214;-77
2024/01/13 09:11:41;;;;;;;9.13;5.17;;;;;;;-2.08;100.00;99037.56;5053563;28;20223;-77
2024/01/13 09:14:09;;;;;;;9.27;4.97;;;;;;;-2.03;100.00;99053.94;5053007;28;20207;-78
2024/01/13 09:16:35;;;;;;;9.07;4.30;;;;;;;-1.99;100.00;99042.69;5053951;28;20215;-77
2024/01/13 09:19:02;;;;;;;9.80;4.43;;;;;;;-2.02;100.00;99037.53;5055052;28;20214;-78
2024/01/13 09:21:28;;;;;;;9.80;4.90;;;;;;;-1.99;100.00;99037.50;5053951;28;20243;-77
2024/01/13 09:23:55;;;;;;;8.73;4.33;;;;;;;-2.06;100.00;99046.19;5053402;28;20215;-78
2024/01/13 09:26:21;;;;;;;7.47;3.97;;;;;;;-2.07;100.00;99052.22;5053711;28;20246;-79
2024/01/13 09:28:52;;;;;;;5.70;3.70;;;;;;;-2.08;100.00;99053.09;5056104;28;20661;-79
2024/01/13 09:31:20;;;;;;;9.03;3.97;;;;;;;-1.93;100.00;99053.00;5052307;28;20226;-78
2024/01/13 09:33:46;;;;;;;7.03;3.83;;;;;;;-2.09;100.00;99053.97;5052294;28;20219;-79
2024/01/13 09:36:14;;;;;;;7.47;3.83;;;;;;;-2.04;100.00;99054.78;5051311;28;20218;-76
2024/01/13 09:38:40;;;;;;;7.20;4.20;;;;;;;-2.04;100.00;99045.31;5051717;28;20218;-77
2024/01/13 09:41:07;;;;;;;8.03;3.67;;;;;;;-1.99;100.00;99032.31;5052606;28;20231;-77
2024/01/13 09:43:42;;;;;;;6.83;3.87;;;;;;;-2.05;100.00;99032.34;5052633;28;20217;-77
2024/01/13 09:46:09;;;;;;;7.43;4.47;;;;;;;-2.04;100.00;99023.72;5052732;28;20210;-77
2024/01/13 09:48:37;;;;;;;9.85;5.40;;;;;;;-2.00;100.00;99022.84;5056307;28;20436;-77
2024/01/13 09:51:05;;;;;;;9.13;4.83;;;;;;;-1.95;100.00;99031.44;5059709;28;20219;-77
2024/01/13 09:53:36;;;;;;;8.40;4.70;;;;;;;-1.80;100.00;99028.75;5058471;28;20219;-77
2024/01/13 09:56:06;;;;;;;6.83;4.53;;;;;;;-1.80;100.00;99028.75;5060362;28;20221;-77
2024/01/13 09:58:33;;;;;;;11.87;5.50;;;;;;;-1.79;100.00;99022.72;5058852;28;20718;-77
2024/01/13 10:01:00;;;;;;;10.00;4.87;;;;;;;-1.82;100.00;99026.19;5056531;28;20327;-78
2024/01/13 10:03:27;;;;;;;9.30;5.23;;;;;;;-1.72;100.00;99032.19;5056456;28;20206;-77
2024/01/13 10:05:55;;;;;;;9.27;4.60;;;;;;;-1.79;100.00;99020.13;5055773;28;20237;-77
2024/01/13 10:08:30;;;;;;;9.67;4.87;;;;;;;-1.80;100.00;99002.84;5057558;28;20215;-78
2024/01/13 10:10:57;;;;;;;10.87;5.40;;;;;;;-1.71;100.00;99007.97;5057347;28;20553;-77
2024/01/13 10:13:25;;;;;;;8.73;5.00;;;;;;;-1.80;100.00;98997.66;5058269;28;20211;-77
2024/01/13 10:15:51;;;;;;;13.13;7.17;;;;;;;-1.83;100.00;98997.69;5058778;28;20211;-77
2024/01/13 10:18:18;;;;;;;10.73;5.33;;;;;;;-1.78;100.00;98995.94;5059610;28;20218;-77
2024/01/13 10:20:44;;;;;;;8.13;4.60;;;;;;;-1.81;100.00;98998.53;5057806;28;20235;-77
2024/01/13 10:23:13;;;;;;;10.03;5.60;;;;;;;-1.77;100.00;98982.94;5058843;28;20228;-78
2024/01/13 10:25:40;;;;;;;13.00;6.00;;;;;;;-1.74;100.00;98989.84;5058666;28;20590;-78
2024/01/13 10:28:06;;;;;;;11.00;6.07;;;;;;;-1.79;100.00;98994.22;5057844;28;20207;-77
2024/01/13 10:30:33;;;;;;;8.23;5.20;;;;;;;-1.79;100.00;98996.81;5057624;28;20702;-78
2024/01/13 10:33:00;;;;;;;9.23;5.53;;;;;;;-1.76;100.00;99004.56;5056452;28;20235;-79
2024/01/13 10:35:27;;;;;;;12.17;5.97;;;;;;;-1.79;100.00;99002.00;5055005;28;20216;-79
2024/01/13 10:37:56;;;;;;;11.37;5.93;;;;;;;-1.72;100.00;98996.75;5055415;28;20302;-79
2024/01/13 10:40:24;;;;;;;11.70;6.50;;;;;;;-1.74;100.00;98993.31;5055637;28;20207;-79
2024/01/13 10:42:54;;;;;;;13.10;6.10;;;;;;;-1.64;100.00;98986.31;5055203;28;20235;-79
2024/01/13 10:45:23;;;;;;;10.80;6.33;;;;;;;-1.68;100.00;98967.34;5055012;28;20208;-79
2024/01/13 10:47:52;;;;;;;11.87;6.43;;;;;;;-1.67;100.00;98957.88;5055179;28;20208;-79
2024/01/13 10:50:19;;;;;;;11.23;6.27;;;;;;;-1.72;100.00;98951.84;5054720;28;20211;-77
2024/01/13 10:52:58;;;;;;;13.97;7.20;;;;;;;-1.70;100.00;98944.91;5054621;28;20247;-77
2024/01/13 10:55:27;;;;;;;9.77;6.07;;;;;;;-1.69;100.00;98941.44;5054708;28;20208;-78
2024/01/13 10:57:56;;;;;;;11.43;6.33;;;;;;;-1.69;100.00;98944.03;5054377;28;20307;-80
2024/01/13 11:00:23;;;;;;;11.03;6.37;;;;;;;-1.62;100.00;98924.97;5055223;28;20234;-77
2024/01/13 11:02:50;;;;;;;11.23;6.50;;;;;;;-1.63;100.00;98918.06;5054447;28;20238;-78
2024/01/13 11:05:18;;;;;;;11.43;6.73;;;;;;;-1.62;100.00;98919.78;5054728;28;20215;-78
2024/01/13 11:07:45;;;;;;;13.37;6.97;;;;;;;-1.61;100.00;98926.72;5054137;28;20210;-77
2024/01/13 11:10:17;;;;;;;10.17;5.80;;;;;;;-1.59;100.00;98930.13;5054128;28;20670;-77
2024/01/13 11:12:50;;;;;;;12.67;6.80;;;;;;;-1.55;100.00;98932.69;5054634;28;20227;-79
2024/01/13 11:15:27;;;;;;;12.83;6.43;;;;;;;-1.59;100.00;98928.38;5054567;28;20689;-79